Skip Navigation Links
NOAA logo - Click to go to the NOAA homepage
NOAA's National Weather Service
Alaska Aviation Weather Unit
  NWS logo - Click to go to the NWS homepage
Left Navbar Graphic     03 AKDT = 11 GMT

   
NOAA is celebrating 200 years of science, service, and stewardship. Visit the NOAA 200th celebration Web site to learn more.
USA.gov is the U.S. Government's official Web portal to all Federal, state and local government Web resources and services.
Facebook
NWS on Facebook

AAWU Home :: Display TAF Add Bookmark
TAF PABT 290520Z 2906/3006 VRB03KT P6SM -SN SCT045 BKN050
     FM290800 VRB04KT 4SM -SN BR SCT025 BKN035 OVC045
     FM291500 VRB04KT P6SM VCSH SCT025 BKN035 OVC050
     FM300300 VRB03KT 2SM -SN BR SCT015 BKN025 OVC050=

METAR PABT 290553Z 00000KT 10SM OVC049 M08/M14 A2971 RMK AO2 SNE48 SLP077 60000 931000 4/025 T10831139 11067 21083 53010= METAR PABT 290653Z 00000KT 10SM OVC047 M09/M13 A2971 RMK AO2 SLP079 T10891133= METAR PABT 290753Z 00000KT 10SM OVC047 M09/M14 A2971 RMK AO2 SLP080 T10941139= METAR PABT 290853Z 01003KT 10SM BKN046 BKN075 M09/M15 A2972 RMK AO2 SLP081 T10941150 410671100 51004= METAR PABT 290953Z 01007KT 10SM SCT048 BKN065 BKN100 M09/M16 A2971 RMK AO2 SLP080 T10941156= METAR PABT 291053Z 02006KT 10SM BKN070 OVC110 M09/M16 A2972 RMK SLP081 T10941156 VIA AUTODIAL=
 Alaska TAF Map

NOAA's National Weather Service
Alaska Aviation Weather Unit
6930 Sand Lake Road
Anchorage, AK 99502-1845
Disclaimer
Credits
Glossary
Privacy Policy
About Us
Career Opportunities
Contact AAWU Internet Services Site last modified: April, 17th 2012